• Join FlightAware (Why Join?)
  • Login
  • US Flag 
01:22AM EDT


 

Airport Tracker/Info


-or-


 

Live Flight TrackerFlight Track Log ✈ TRS587 ✈ 03-Sep-2013 ✈ KMCO - KMDW

Flight Track Log - Related Links

Times and Time Zones

All times are in EDT time to prevent confusion due to time zone crossing. See the TRS587 flight status page for this flight to view local times or setup timezone preferences in your user account.

Time Position Orientation Groundspeed Altitude Reporting Facility
EDT Latitude Longitude Course Direction KTS MPH feet Rate Location/Type
11:39AM 28.4000 -81.3000 213° Southwest 169 194 800  Level Orlando TRACON
11:41AM 28.3333 -81.3500 213° Southwest 267 307 2,800 1,800 Climbing Orlando TRACON
11:42AM 28.3333 -81.4333 270° West 263 303 5,100 2,220 Climbing Orlando TRACON
11:43AM 28.3667 -81.5000 300° West 279 321 7,300 1,800 Climbing Orlando TRACON
11:45AM 28.3947 -81.6819 280° West 296 341 11,000 1,500 Climbing Jacksonville Center
11:46AM 28.3914 -81.7836 268° West 302 348 12,200 1,200 Climbing Jacksonville Center
11:47AM 28.3778 -81.8969 262° West 338 389 13,400 1,320 Climbing Jacksonville Center
11:48AM 28.3661 -82.0150 264° West 368 423 14,900 1,440 Climbing Jacksonville Center
11:49AM 28.3481 -82.1403 261° West 390 449 16,300 1,380 Climbing Jacksonville Center
11:50AM 28.3342 -82.2628 263° West 395 455 17,700 1,380 Climbing Jacksonville Center
11:51AM 28.3992 -82.3711 304° West 470 541 19,100 1,380 Climbing Jacksonville Center
11:52AM 28.4914 -82.4533 322° Northwest 438 504 20,500 1,320 Climbing Jacksonville Center
11:53AM 28.6022 -82.5119 335° Northwest 427 491 21,800 1,320 Climbing Jacksonville Center
11:54AM 28.7131 -82.5683 336° Northwest 427 491 23,200 1,320 Climbing Jacksonville Center
11:55AM 28.8258 -82.6294 335° Northwest 439 505 24,500 1,740 Climbing Jacksonville Center
11:56AM 28.9344 -82.6886 335° Northwest 444 511 26,700 1,680 Climbing Jacksonville Center
11:57AM 29.0411 -82.7453 335° Northwest 439 505 27,900 1,200 Climbing Jacksonville Center
11:58AM 29.1497 -82.8047 334° Northwest 434 499 29,100 1,020 Climbing Jacksonville Center
11:59AM 29.2603 -82.8664 334° Northwest 429 494 30,000 660 Climbing Jacksonville Center
12:00PM 29.3731 -82.9258 335° Northwest 429 494 30,500 660 Climbing Jacksonville Center
12:01PM 29.5044 -83.0000 334° Northwest 454 522 31,400 720 Climbing Jacksonville Center
12:02PM 29.6192 -83.0622 335° Northwest 463 533 32,000 300 Climbing Jacksonville Center
12:03PM 29.7403 -83.1175 338° Northwest 467 537 32,000  Level Jacksonville Center
12:04PM 29.8569 -83.1703 339° North 468 539 32,000  Level Jacksonville Center
12:05PM 29.9781 -83.2283 337° Northwest 456 525 32,000  Level Jacksonville Center
12:06PM 30.1011 -83.2839 339° North 456 525 32,000  Level Jacksonville Center
12:07PM 30.2197 -83.3372 339° North 456 525 32,000  Level Jacksonville Center
12:08PM 30.3406 -83.3956 337° Northwest 456 525 32,000  Level Jacksonville Center
12:09PM 30.4617 -83.4517 338° Northwest 456 525 32,000  Level Jacksonville Center
12:10PM 30.5803 -83.5078 338° Northwest 456 525 32,000  Level Jacksonville Center
12:11PM 30.6989 -83.5667 337° Northwest 456 525 32,000  Level Jacksonville Center
12:12PM 30.8156 -83.6183 339° North 456 525 32,000  Level Jacksonville Center
12:13PM 30.9344 -83.6772 337° Northwest 456 525 32,000  Level Jacksonville Center
12:14PM 31.0531 -83.7342 338° Northwest 456 525 32,000  Level Jacksonville Center
12:15PM 31.1717 -83.7908 338° Northwest 456 525 32,000  Level Jacksonville Center
12:17PM 31.4125 -83.9075 338° Northwest 477 549 32,000  Level Atlanta Center
12:18PM 31.5317 -83.9633 338° Northwest 471 542 32,000  Level Atlanta Center
12:19PM 31.6589 -83.9950 348° North 466 536 32,000  Level Atlanta Center
12:20PM 31.7906 -84.0217 350° North 466 536 32,000  Level Atlanta Center
12:21PM 31.9178 -84.0486 350° North 466 536 32,000  Level Atlanta Center
12:22PM 32.0472 -84.0756 350° North 466 536 32,000  Level Atlanta Center
12:23PM 32.1619 -84.1025 349° North 466 536 32,000  Level Atlanta Center
12:24PM 32.2914 -84.1322 349° North 466 536 32,000  Level Atlanta Center
12:25PM 32.4250 -84.1619 349° North 471 542 32,000  Level Atlanta Center
12:26PM 32.5542 -84.1917 349° North 471 542 32,000  Level Atlanta Center
12:27PM 32.6794 -84.2189 350° North 466 536 32,000  Level Atlanta Center
12:28PM 32.8233 -84.2489 350° North 471 542 32,000 420 Level Atlanta Center
12:29PM 32.9486 -84.2814 348° North 464 534 32,900 960 Climbing Atlanta Center
12:30PM 33.0717 -84.3114 348° North 458 527 34,000 540 Climbing Atlanta Center
12:31PM 33.1989 -84.3392 350° North 452 520 34,000  Level Atlanta Center
12:32PM 33.3053 -84.3644 349° North 445 512 34,000  Level Atlanta Center
12:33PM 33.4242 -84.3897 350° North 445 512 34,000  Level Atlanta Center
12:34PM 33.5453 -84.4178 349° North 445 512 34,000  Level Atlanta Center
12:35PM 33.6725 -84.4481 349° North 433 498 34,000  Level Atlanta Center
12:36PM 33.7850 -84.4761 348° North 418 481 34,000  Level Atlanta Center
12:37PM 33.9061 -84.5044 349° North 423 487 34,000  Level Atlanta Center
12:38PM 34.0228 -84.5350 348° North 429 494 34,000  Level Atlanta Center
12:39PM 34.1458 -84.5608 350° North 444 511 34,000  Level Atlanta Center
12:40PM 34.2500 -84.5867 348° North 444 511 34,000  Level Atlanta Center
12:41PM 34.3669 -84.6125 350° North 433 498 34,000  Level Atlanta Center
12:42PM 34.4836 -84.6436 348° North 421 484 34,000  Level Atlanta Center
12:43PM 34.5961 -84.6722 348° North 421 484 34,000  Level Atlanta Center
12:44PM 34.7211 -84.7033 348° North 416 479 34,000  Level Atlanta Center
12:45PM 34.8358 -84.7322 348° North 410 472 34,000  Level Atlanta Center
12:46PM 34.9506 -84.7611 348° North 410 472 34,000  Level Atlanta Center
12:47PM 35.0672 -84.7900 349° North 410 472 34,000  Level Atlanta Center
12:48PM 35.1797 -84.8189 348° North 410 472 34,000  Level Atlanta Center
12:49PM 35.2922 -84.8453 349° North 410 472 34,000  Level Atlanta Center
12:50PM 35.4047 -84.8744 348° North 410 472 34,000  Level Atlanta Center
12:51PM 35.5169 -84.9036 348° North 410 472 34,000  Level Atlanta Center
12:52PM 35.6275 -84.9331 348° North 410 472 34,000  Level Atlanta Center
12:53PM 35.7378 -84.9622 348° North 410 472 34,000  Level Atlanta Center
12:54PM 35.8481 -84.9867 350° North 415 478 34,000  Level Atlanta Center
12:55PM 35.9417 -85.0092 349° North 409 471 34,000  Level Indianapolis Center
12:56PM 36.0556 -85.0392 348° North 406 467 34,000  Level Indianapolis Center
12:57PM 36.1653 -85.0672 348° North 402 463 34,000  Level Indianapolis Center
12:58PM 36.2761 -85.0953 348° North 403 464 34,000  Level Indianapolis Center
12:59PM 36.3861 -85.1231 349° North 404 465 34,000  Level Indianapolis Center
01:00PM 36.4961 -85.1522 348° North 404 465 34,000  Level Indianapolis Center
01:01PM 36.6286 -85.1864 348° North 404 465 34,000  Level Indianapolis Center
01:02PM 36.7375 -85.2144 348° North 401 461 34,000  Level Indianapolis Center
01:03PM 36.8478 -85.2428 348° North 402 463 34,000  Level Indianapolis Center
01:04PM 36.9569 -85.2717 348° North 401 461 34,000  Level Indianapolis Center
01:05PM 37.0697 -85.3014 348° North 403 464 34,000  Level Indianapolis Center
01:06PM 37.1783 -85.3311 348° North 400 460 34,000  Level Indianapolis Center
01:07PM 37.2886 -85.3578 349° North 400 460 34,000  Level Indianapolis Center
01:08PM 37.4144 -85.3933 347° North 396 456 34,000  Level Indianapolis Center
01:09PM 37.5231 -85.4194 349° North 395 455 34,000  Level Indianapolis Center
01:10PM 37.6328 -85.4400 352° North 396 456 34,000  Level Indianapolis Center
01:11PM 37.7417 -85.4622 351° North 394 453 34,000  Level Indianapolis Center
01:12PM 37.8614 -85.4878 350° North 397 457 34,000  Level Indianapolis Center
01:13PM 37.9719 -85.5086 352° North 399 459 34,000  Level Indianapolis Center
01:14PM 38.0808 -85.5247 353° North 399 459 34,000  Level Indianapolis Center
01:15PM 38.1844 -85.4686 23° Northeast 404 465 34,000  Level Indianapolis Center
01:16PM 38.2853 -85.4078 25° Northeast 401 461 34,000 -660 Level Indianapolis Center
01:17PM 38.3883 -85.3464 25° Northeast 406 467 32,700 -1,020 Descending Indianapolis Center
01:18PM 38.4939 -85.2986 20° North 415 478 32,000 -360 Descending Indianapolis Center
01:19PM 38.6019 -85.3317 347° North 406 467 32,000 -540 Level Indianapolis Center
01:20PM 38.7258 -85.3778 344° North 405 466 31,000 -1,440 Descending Indianapolis Center
01:22PM 38.8342 -85.4167 344° North 406 467 29,100 -1,500 Descending Indianapolis Center
01:23PM 38.9431 -85.4581 344° North 410 472 28,000 -540 Descending Indianapolis Center
01:24PM 39.0506 -85.4972 344° North 404 465 28,000  Level Indianapolis Center
01:25PM 39.1575 -85.5383 343° North 403 464 28,000  Level Indianapolis Center
01:26PM 39.2869 -85.5856 344° North 404 465 28,000  Level Indianapolis Center
01:27PM 39.3942 -85.6258 344° North 403 464 28,000 -300 Level Indianapolis Center
01:28PM 39.5006 -85.6653 344° North 401 461 27,500 -780 Descending Indianapolis Center
01:29PM 39.6056 -85.7053 344° North 397 457 26,500 -1,020 Descending Indianapolis Center
01:30PM 39.7094 -85.7444 344° North 395 455 25,400 -1,200 Descending Indianapolis Center
01:31PM 39.8311 -85.7914 343° North 386 444 24,100 -720 Descending Indianapolis Center
01:32PM 39.9306 -85.8400 339° North 385 443 24,000 -60 Descending Indianapolis Center
01:33PM 40.0319 -85.8931 338° Northwest 396 456 24,000  Level Indianapolis Center
01:34PM 40.1331 -85.9458 338° Northwest 396 456 24,000 -420 Level Indianapolis Center
01:34PM 40.1922 -85.9742 340° North 391 450 23,400 -1,260 Descending Chicago Center
01:35PM 40.2894 -86.0261 338° Northwest 382 440 22,000 -720 Descending Chicago Center
01:36PM 40.3861 -86.0781 338° Northwest 378 435 22,000 -240 Level Chicago Center
01:38PM 40.5003 -86.1372 338° Northwest 376 433 21,600 -540 Descending Chicago Center
01:39PM 40.5989 -86.1906 338° Northwest 377 434 21,000 -780 Descending Chicago Center
01:40PM 40.7019 -86.2450 338° Northwest 375 432 20,000 -1,680 Descending Chicago Center
01:41PM 40.7967 -86.2964 338° Northwest 368 423 17,600 -2,460 Descending Chicago Center
01:42PM 40.8892 -86.3456 338° Northwest 360 414 15,000 -2,520 Descending Chicago Center
01:43PM 40.9772 -86.3942 337° Northwest 347 399 12,500 -1,380 Descending Chicago Center
01:45PM 41.1147 -86.5342 323° Northwest 309 356 10,900 -840 Descending Chicago Center
01:46PM 41.1744 -86.6261 311° West 278 320 10,000 -480 Descending Chicago Center
01:47PM 41.2244 -86.7039 311° West 276 318 10,000  Level Chicago Center
01:48PM 41.2761 -86.7842 311° West 273 314 10,000 -600 Level Chicago Center
01:49PM 41.3256 -86.8625 310° West 278 320 8,800 -1,260 Descending Chicago Center
01:50PM 41.3739 -86.9375 311° West 271 312 7,500 -1,260 Descending Chicago Center
01:51PM 41.4222 -87.0133 310° West 271 312 6,200 -780 Descending Chicago Center
01:52PM 41.4378 -87.1089 282° West 276 318 6,000 -120 Descending Chicago Center
01:53PM 41.4772 -87.2111 297° West 279 321 6,000  Level Chicago Center
01:54PM 41.5189 -87.2925 304° West 269 310 6,000 -300 Level Chicago Center
01:55PM 41.5594 -87.3753 303° West 268 308 5,500 -1,020 Descending Chicago Center
01:56PM 41.5983 -87.4572 302° West 266 306 3,900 -780 Descending Chicago Center
01:57PM 41.6328 -87.5400 299° West 262 302 3,900 -300 Level Chicago Center
01:58PM 41.6836 -87.6083 315° West 235 270 3,400 -840 Descending Chicago Center
01:59PM 41.7200 -87.6614 313° West 216 249 2,300 -960 Descending Chicago Center
02:00PM 41.7522 -87.7064 314° West 194 223 1,500 -660 Descending Chicago Center
02:01PM 41.7822 -87.7483 314° West 172 198 1,000 -540 Descending Chicago Center
02:03PM 41.7833 -87.7500 14° North  Level FlightAware Approximate